createdAt,value
2022-09-29T00:01:13.436Z,99450.34
2022-09-29T00:03:41.566Z,99466.09
2022-09-29T00:06:14.480Z,99474.16
2022-09-29T00:08:42.466Z,99461.75
2022-09-29T00:11:11.664Z,99469.16
2022-09-29T00:13:41.091Z,99472.50
2022-09-29T00:16:09.328Z,99473.34
2022-09-29T00:18:37.389Z,99477.03
2022-09-29T00:21:07.186Z,99477.88
2022-09-29T00:23:36.775Z,99469.81
2022-09-29T00:26:08.123Z,99467.13
2022-09-29T00:28:37.846Z,99458.41
2022-09-29T00:31:09.125Z,99459.63
2022-09-29T00:33:38.538Z,99460.09
2022-09-29T00:36:08.452Z,99448.88
2022-09-29T00:38:36.842Z,99438.59
2022-09-29T00:41:05.363Z,99427.78
2022-09-29T00:43:54.664Z,99447.66
2022-09-29T00:46:32.386Z,99457.59
2022-09-29T00:49:04.586Z,99463.78
2022-09-29T00:51:37.627Z,99454.72
2022-09-29T00:54:07.870Z,99451.38
2022-09-29T00:56:37.093Z,99458.22
2022-09-29T00:59:09.913Z,99461.09
2022-09-29T01:01:39.486Z,99460.09
2022-09-29T01:04:13.008Z,99461.75
2022-09-29T01:06:44.987Z,99473.53
2022-09-29T01:09:16.837Z,99465.47
2022-09-29T01:11:45.050Z,99459.25
2022-09-29T01:14:13.903Z,99455.72
2022-09-29T01:16:43.533Z,99464.81
2022-09-29T01:19:17.935Z,99465.66
2022-09-29T01:21:53.835Z,99473.53
2022-09-29T01:24:47.214Z,99467.50
2022-09-29T01:27:25.639Z,99450.44
2022-09-29T01:30:13.252Z,99465.84
2022-09-29T01:33:02.205Z,99468.53
2022-09-29T01:35:39.309Z,99469.50
2022-09-29T01:38:21.799Z,99468.69
2022-09-29T01:40:56.225Z,99476.09
2022-09-29T01:43:28.986Z,99475.06
2022-09-29T01:46:04.155Z,99468.56
2022-09-29T01:48:38.127Z,99469.88
2022-09-29T01:51:10.936Z,99446.50
2022-09-29T01:53:43.829Z,99462.84
2022-09-29T01:56:18.041Z,99476.94
2022-09-29T01:58:53.442Z,99467.84
2022-09-29T02:01:24.771Z,99471.56
2022-09-29T02:03:59.298Z,99470.53
2022-09-29T02:06:36.631Z,99471.56
2022-09-29T02:09:10.171Z,99473.22
2022-09-29T02:11:42.151Z,99467.84
2022-09-29T02:14:15.943Z,99473.22
2022-09-29T02:16:49.300Z,99467.72
2022-09-29T02:19:21.209Z,99483.13
2022-09-29T02:21:49.406Z,99481.28
2022-09-29T02:24:17.513Z,99479.81
2022-09-29T02:26:45.796Z,99485.63
2022-09-29T02:29:14.804Z,99485.63
2022-09-29T02:31:43.019Z,99482.94
2022-09-29T02:34:14.778Z,99480.25
2022-09-29T02:36:55.834Z,99474.88
2022-09-29T02:39:32.630Z,99469.88
2022-09-29T02:42:14.959Z,99473.22
2022-09-29T02:44:57.148Z,99460.81
2022-09-29T02:47:39.410Z,99466.19
2022-09-29T02:50:42.979Z,99464.50
2022-09-29T02:53:18.516Z,99473.59
2022-09-29T02:55:57.350Z,99476.44
2022-09-29T02:58:32.347Z,99485.34
2022-09-29T03:01:01.878Z,99471.91
2022-09-29T03:03:30.035Z,99474.59
2022-09-29T03:05:58.252Z,99477.28
2022-09-29T03:08:27.678Z,99475.59
2022-09-29T03:10:55.769Z,99482.66
2022-09-29T03:13:23.838Z,99502.09
2022-09-29T03:15:51.996Z,99492.22
2022-09-29T03:18:20.165Z,99491.34
2022-09-29T03:20:48.122Z,99495.75
2022-09-29T03:23:16.339Z,99493.06
2022-09-29T03:25:45.719Z,99489.69
2022-09-29T03:28:13.742Z,99496.72
2022-09-29T03:30:41.782Z,99502.09
2022-09-29T03:33:09.779Z,99502.09
2022-09-29T03:35:40.389Z,99494.91
2022-09-29T03:38:11.718Z,99497.94
2022-09-29T03:40:40.180Z,99503.81
2022-09-29T03:43:09.535Z,99495.91
2022-09-29T03:45:37.534Z,99495.91
2022-09-29T03:48:05.842Z,99511.19
2022-09-29T03:50:33.837Z,99501.47
2022-09-29T03:53:01.784Z,99493.41
2022-09-29T03:55:29.850Z,99500.44
2022-09-29T03:57:57.840Z,99498.78
2022-09-29T04:00:27.267Z,99498.78
2022-09-29T04:02:55.972Z,99497.09
2022-09-29T04:05:24.591Z,99504.16
2022-09-29T04:07:52.635Z,99498.78
2022-09-29T04:10:20.771Z,99504.16
2022-09-29T04:12:48.858Z,99499.59
2022-09-29T04:15:17.029Z,99505.81
2022-09-29T04:17:46.673Z,99514.91
2022-09-29T04:20:14.684Z,99505.81
2022-09-29T04:22:43.495Z,99505.81
2022-09-29T04:25:11.501Z,99509.19
2022-09-29T04:27:39.727Z,99523.75
2022-09-29T04:30:09.366Z,99515.50
2022-09-29T04:32:37.347Z,99517.16
2022-09-29T04:35:07.630Z,99513.84
2022-09-29T04:37:35.607Z,99520.88
2022-09-29T04:40:04.161Z,99518.38
2022-09-29T04:42:32.286Z,99517.53
2022-09-29T04:45:00.340Z,99516.69
2022-09-29T04:47:28.534Z,99521.22
2022-09-29T04:49:58.662Z,99522.06
2022-09-29T04:52:28.207Z,99524.94
2022-09-29T04:54:56.284Z,99531.97
2022-09-29T04:57:24.428Z,99534.00
2022-09-29T04:59:52.776Z,99538.38
2022-09-29T05:02:20.940Z,99544.75
2022-09-29T05:04:49.178Z,99524.09
2022-09-29T05:07:17.303Z,99532.34
2022-09-29T05:09:46.724Z,99538.56
2022-09-29T05:12:15.299Z,99539.38
2022-09-29T05:14:43.505Z,99526.59
2022-09-29T05:17:12.035Z,99526.56
2022-09-29T05:19:40.309Z,99535.56
2022-09-29T05:22:08.813Z,99525.31
2022-09-29T05:24:37.084Z,99536.53
2022-09-29T05:27:06.863Z,99541.53
2022-09-29T05:29:36.111Z,99531.47
2022-09-29T05:32:04.617Z,99540.56
2022-09-29T05:34:32.740Z,99551.59
2022-09-29T05:37:00.962Z,99551.59
2022-09-29T05:39:31.927Z,99549.56
2022-09-29T05:42:00.064Z,99544.19
2022-09-29T05:44:30.024Z,99545.84
2022-09-29T05:46:58.631Z,99542.13
2022-09-29T05:49:26.941Z,99535.81
2022-09-29T05:51:55.159Z,99525.78
2022-09-29T05:54:24.262Z,99549.22
2022-09-29T05:56:52.338Z,99542.97
2022-09-29T05:59:20.546Z,99550.88
2022-09-29T06:01:50.399Z,99552.53
2022-09-29T06:04:18.791Z,99558.09
2022-09-29T06:06:48.299Z,99555.88
2022-09-29T06:09:17.173Z,99555.88
2022-09-29T06:11:45.533Z,99555.88
2022-09-29T06:14:13.719Z,99562.94
2022-09-29T06:16:42.311Z,99552.53
2022-09-29T06:19:12.201Z,99543.81
2022-09-29T06:21:40.895Z,99550.16
2022-09-29T06:24:09.362Z,99546.53
2022-09-29T06:26:37.664Z,99543.53
2022-09-29T06:29:06.339Z,99567.94
2022-09-29T06:31:34.968Z,99564.25
2022-09-29T06:34:06.190Z,99569.66
2022-09-29T06:36:55.576Z,99579.38
2022-09-29T06:39:23.707Z,99575.00
2022-09-29T06:41:54.557Z,99564.25
2022-09-29T06:44:24.459Z,99579.38
2022-09-29T06:46:53.378Z,99573.31
2022-09-29T06:49:23.026Z,99574.00
2022-09-29T06:51:52.742Z,99568.63
2022-09-29T06:54:25.322Z,99572.97
2022-09-29T06:56:55.410Z,99582.06
2022-09-29T06:59:24.181Z,99575.00
2022-09-29T07:01:52.730Z,99585.59
2022-09-29T07:04:24.175Z,99598.19
2022-09-29T07:06:53.951Z,99592.31
2022-09-29T07:09:23.487Z,99598.19
2022-09-29T07:11:53.237Z,99599.84
2022-09-29T07:14:23.581Z,99588.47
2022-09-29T07:16:52.957Z,99606.06
2022-09-29T07:19:22.784Z,99602.25
2022-09-29T07:21:51.786Z,99590.16
2022-09-29T07:24:21.335Z,99611.81
2022-09-29T07:26:49.551Z,99611.31
2022-09-29T07:29:17.775Z,99609.66
2022-09-29T07:31:51.931Z,99608.00
2022-09-29T07:34:20.721Z,99615.38
2022-09-29T07:36:48.857Z,99617.41
2022-09-29T07:39:17.041Z,99617.06
2022-09-29T07:41:46.615Z,99612.03
2022-09-29T07:44:14.722Z,99615.38
2022-09-29T07:46:42.825Z,99626.16
2022-09-29T07:49:10.900Z,99618.63
2022-09-29T07:51:39.578Z,99626.16
2022-09-29T07:54:07.819Z,99619.91
2022-09-29T07:56:36.343Z,99626.16
2022-09-29T07:59:06.066Z,99626.16
2022-09-29T08:01:35.537Z,99632.72
2022-09-29T08:04:03.926Z,99636.91
2022-09-29T08:06:33.254Z,99633.53
2022-09-29T08:09:04.970Z,99633.53
2022-09-29T08:11:34.263Z,99638.91
2022-09-29T08:14:03.404Z,99639.75
2022-09-29T08:16:33.350Z,99644.28
2022-09-29T08:19:02.345Z,99646.00
2022-09-29T08:21:31.981Z,99640.63
2022-09-29T08:24:02.430Z,99648.69
2022-09-29T08:26:41.416Z,99656.75
2022-09-29T08:29:15.936Z,99659.44
2022-09-29T08:31:47.032Z,99655.91
2022-09-29T08:34:15.637Z,99655.06
2022-09-29T08:36:43.861Z,99661.28
2022-09-29T08:39:13.161Z,99645.56
2022-09-29T08:41:58.423Z,99658.75
2022-09-29T08:44:39.837Z,99662.28
2022-09-29T08:47:19.090Z,99669.50
2022-09-29T08:49:51.135Z,99678.59
2022-09-29T08:52:24.196Z,99675.75
2022-09-29T08:54:57.747Z,99681.94
2022-09-29T08:57:26.895Z,99673.88
2022-09-29T08:59:58.167Z,99681.94
2022-09-29T09:02:53.099Z,99692.69
2022-09-29T09:05:37.213Z,99658.84
2022-09-29T09:08:15.109Z,99691.19
2022-09-29T09:10:47.720Z,99692.03
2022-09-29T09:13:27.182Z,99691.03
2022-09-29T09:16:21.955Z,99687.66
2022-09-29T09:19:28.173Z,99690.19
2022-09-29T09:22:08.253Z,99694.72
2022-09-29T09:24:43.830Z,99698.41
2022-09-29T09:27:18.017Z,99694.72
2022-09-29T09:29:49.389Z,99698.25
2022-09-29T09:32:22.079Z,99698.25
2022-09-29T09:34:59.869Z,99700.13
2022-09-29T09:37:37.393Z,99701.78
2022-09-29T09:40:14.975Z,99701.78
2022-09-29T09:42:47.937Z,99712.53
2022-09-29T09:45:26.143Z,99703.78
2022-09-29T09:48:00.128Z,99714.19
2022-09-29T09:50:28.645Z,99713.38
2022-09-29T09:53:02.518Z,99720.31
2022-09-29T09:55:35.066Z,99730.03
2022-09-29T09:58:17.122Z,99718.59
2022-09-29T10:00:49.410Z,99725.00
2022-09-29T10:03:17.698Z,99730.56
2022-09-29T10:05:48.547Z,99721.00
2022-09-29T10:08:24.297Z,99724.69
2022-09-29T10:10:58.656Z,99677.75
2022-09-29T10:13:29.651Z,99726.72
2022-09-29T10:16:02.712Z,99722.34
2022-09-29T10:18:38.353Z,99730.41
2022-09-29T10:21:20.769Z,99725.03
2022-09-29T10:23:55.334Z,99735.13
2022-09-29T10:26:26.935Z,99694.72
2022-09-29T10:28:58.420Z,99743.19
2022-09-29T10:31:29.102Z,99749.56
2022-09-29T10:33:59.409Z,99750.94
2022-09-29T10:36:30.753Z,99750.75
2022-09-29T10:39:03.301Z,99752.59
2022-09-29T10:41:52.307Z,99759.66
2022-09-29T10:44:22.894Z,99750.94
2022-09-29T10:46:54.434Z,99763.34
2022-09-29T10:49:23.880Z,99755.97
2022-09-29T10:51:59.286Z,99764.69
2022-09-29T10:54:31.039Z,99761.84
2022-09-29T10:57:00.539Z,99758.97
2022-09-29T10:59:29.542Z,99760.66
2022-09-29T11:02:02.228Z,99757.78
2022-09-29T11:04:33.529Z,99759.44
2022-09-29T11:07:10.322Z,99770.03
2022-09-29T11:09:42.495Z,99767.34
2022-09-29T11:12:29.224Z,99769.03
2022-09-29T11:14:57.408Z,99768.19
2022-09-29T11:17:27.531Z,99767.34
2022-09-29T11:19:58.739Z,99770.69
2022-09-29T11:22:54.833Z,99773.41
2022-09-29T11:26:08.027Z,99777.75
2022-09-29T11:29:06.132Z,99777.75
2022-09-29T11:31:51.857Z,99772.38
2022-09-29T11:34:38.792Z,99777.75
2022-09-29T11:37:19.410Z,99776.75
2022-09-29T11:39:54.929Z,99784.81
2022-09-29T11:42:36.077Z,99786.50
2022-09-29T11:45:08.328Z,99785.47
2022-09-29T11:48:27.242Z,99752.13
2022-09-29T11:51:07.261Z,99777.41
2022-09-29T11:53:49.682Z,99782.78
2022-09-29T11:56:32.078Z,99781.75
2022-09-29T11:59:14.834Z,99774.88
2022-09-29T12:02:05.769Z,99799.59
2022-09-29T12:04:46.431Z,99788.16
2022-09-29T12:07:29.273Z,99792.16
2022-09-29T12:10:26.016Z,99801.94
2022-09-29T12:13:01.411Z,99793.84
2022-09-29T12:15:40.920Z,99808.97
2022-09-29T12:18:16.375Z,99788.16
2022-09-29T12:20:46.732Z,99799.88
2022-09-29T12:23:17.586Z,99799.06
2022-09-29T12:25:58.703Z,99804.44
2022-09-29T12:28:35.913Z,99811.31
2022-09-29T12:31:11.062Z,99805.25
2022-09-29T12:33:46.915Z,99810.63
2022-09-29T12:36:45.869Z,99799.88
2022-09-29T12:39:26.758Z,99808.13
2022-09-29T12:42:06.246Z,99801.94
2022-09-29T12:44:39.549Z,99807.31
2022-09-29T12:47:16.120Z,99814.34
2022-09-29T12:50:03.802Z,99808.97
2022-09-29T12:52:41.200Z,99807.31
2022-09-29T12:55:19.510Z,99806.28
2022-09-29T12:57:51.368Z,99793.19
2022-09-29T13:00:20.120Z,99804.63
2022-09-29T13:03:17.840Z,99764.69
2022-09-29T13:06:11.192Z,99798.22
2022-09-29T13:09:08.862Z,99805.25
2022-09-29T13:12:00.824Z,99808.97
2022-09-29T13:14:58.415Z,99805.25
2022-09-29T13:17:45.801Z,99805.59
2022-09-29T13:20:49.481Z,99826.78
2022-09-29T13:23:48.334Z,99821.38
2022-09-29T13:26:30.492Z,99821.38
2022-09-29T13:29:03.302Z,99830.47
2022-09-29T13:31:37.259Z,99828.47
2022-09-29T13:34:06.350Z,99818.69
2022-09-29T13:36:38.687Z,99804.97
2022-09-29T13:39:20.915Z,99815.03
2022-09-29T13:41:49.085Z,99819.72
2022-09-29T13:44:26.637Z,99795.25
2022-09-29T13:46:57.101Z,99832.81
2022-09-29T13:49:30.505Z,99831.00
2022-09-29T13:52:04.653Z,99842.56
2022-09-29T13:54:40.464Z,99846.28
2022-09-29T13:57:29.694Z,99837.19
2022-09-29T14:00:22.090Z,99837.53
2022-09-29T14:03:23.594Z,99839.88
2022-09-29T14:06:22.684Z,99840.88
2022-09-29T14:08:59.272Z,99838.19
2022-09-29T14:11:33.371Z,99842.91
2022-09-29T14:14:06.809Z,99851.66
2022-09-29T14:16:47.983Z,99840.53
2022-09-29T14:19:34.640Z,99833.34
2022-09-29T14:22:04.246Z,99804.00
2022-09-29T14:24:50.568Z,99841.56
2022-09-29T14:27:36.465Z,99851.31
2022-09-29T14:30:17.726Z,99861.22
2022-09-29T14:32:53.467Z,99857.38
2022-09-29T14:35:27.490Z,99864.75
2022-09-29T14:38:06.236Z,99865.78
2022-09-29T14:40:34.684Z,99865.78
2022-09-29T14:43:12.857Z,99867.44
2022-09-29T14:46:25.637Z,99862.75
2022-09-29T14:49:26.978Z,99867.44
2022-09-29T14:52:05.125Z,99864.75
2022-09-29T14:54:46.892Z,99880.88
2022-09-29T14:57:38.143Z,99878.19
2022-09-29T15:00:16.308Z,99881.91
2022-09-29T15:02:52.320Z,99880.19
2022-09-29T15:05:34.963Z,99880.19
2022-09-29T15:08:05.063Z,99888.28
2022-09-29T15:10:40.485Z,99894.66
2022-09-29T15:13:20.222Z,99878.53
2022-09-29T15:15:51.278Z,99877.84
2022-09-29T15:18:38.171Z,99882.25
2022-09-29T15:21:13.610Z,99887.97
2022-09-29T15:24:16.507Z,99890.97
2022-09-29T15:26:46.653Z,99909.13
2022-09-29T15:29:18.353Z,99895.00
2022-09-29T15:31:49.724Z,99900.72
2022-09-29T15:34:22.296Z,99902.75
2022-09-29T15:36:53.513Z,99908.13
2022-09-29T15:39:49.036Z,99915.53
2022-09-29T15:42:21.792Z,99910.16
2022-09-29T15:44:55.371Z,99906.78
2022-09-29T15:47:29.806Z,99905.13
2022-09-29T15:49:57.995Z,99871.56
2022-09-29T15:52:29.008Z,99918.56
2022-09-29T15:54:59.028Z,99919.56
2022-09-29T15:57:47.238Z,99913.19
2022-09-29T16:00:48.486Z,99921.59
2022-09-29T16:03:27.413Z,99926.28
2022-09-29T16:06:04.791Z,99924.28
2022-09-29T16:08:35.676Z,99935.38
2022-09-29T16:11:07.770Z,99938.06
2022-09-29T16:13:40.516Z,99944.44
2022-09-29T16:16:10.779Z,99954.19
2022-09-29T16:18:44.908Z,99947.97
2022-09-29T16:21:18.610Z,99953.31
2022-09-29T16:23:50.782Z,99952.50
2022-09-29T16:26:20.691Z,99961.56
2022-09-29T16:29:18.216Z,99948.16
2022-09-29T16:31:47.710Z,99968.97
2022-09-29T16:34:26.050Z,99961.09
2022-09-29T16:36:56.684Z,99971.66
2022-09-29T16:39:27.193Z,99981.06
2022-09-29T16:41:57.237Z,99977.34
2022-09-29T16:44:28.772Z,99981.06
2022-09-29T16:47:00.373Z,99955.84
2022-09-29T16:49:32.814Z,99989.28
2022-09-29T16:52:04.873Z,99953.66
2022-09-29T16:54:35.055Z,99982.59
2022-09-29T16:57:30.216Z,99990.47
2022-09-29T17:00:00.345Z,99893.81
2022-09-29T17:02:29.510Z,99992.47
2022-09-29T17:05:01.416Z,100003.22
2022-09-29T17:07:30.313Z,100004.25
2022-09-29T17:10:00.678Z,100012.31
2022-09-29T17:12:30.837Z,100006.94
2022-09-29T17:15:01.610Z,100018.50
2022-09-29T17:17:30.081Z,100014.34
2022-09-29T17:19:59.670Z,100013.31
2022-09-29T17:22:31.241Z,100021.72
2022-09-29T17:24:59.970Z,100007.28
2022-09-29T17:27:48.015Z,100021.41
2022-09-29T17:30:20.887Z,100018.72
2022-09-29T17:32:49.749Z,100021.88
2022-09-29T17:35:21.376Z,100021.03
2022-09-29T17:37:50.073Z,100019.38
2022-09-29T17:40:25.224Z,100024.41
2022-09-29T17:42:53.414Z,100022.22
2022-09-29T17:45:22.398Z,100031.47
2022-09-29T17:47:50.874Z,100029.78
2022-09-29T17:50:30.181Z,100034.81
2022-09-29T17:52:58.822Z,100041.88
2022-09-29T17:55:27.873Z,100027.44
2022-09-29T17:57:57.707Z,100029.13
2022-09-29T18:00:28.124Z,100025.09
2022-09-29T18:02:57.487Z,100039.53
2022-09-29T18:05:29.162Z,100042.22
2022-09-29T18:07:58.336Z,100044.91
2022-09-29T18:10:29.091Z,100042.91
2022-09-29T18:12:57.649Z,100055.34
2022-09-29T18:15:26.726Z,100062.72
2022-09-29T18:17:57.825Z,100051.28
2022-09-29T18:20:29.856Z,100048.78
2022-09-29T18:22:59.147Z,100014.31
2022-09-29T18:25:28.876Z,100051.97
2022-09-29T18:27:57.607Z,100052.63
2022-09-29T18:30:27.733Z,100058.34
2022-09-29T18:32:58.894Z,100047.28
2022-09-29T18:35:31.270Z,100057.84
2022-09-29T18:38:00.047Z,100058.03
2022-09-29T18:40:29.877Z,100060.03
2022-09-29T18:42:59.747Z,100050.63
2022-09-29T18:45:29.713Z,100060.34
2022-09-29T18:47:59.788Z,100069.44
2022-09-29T18:50:32.249Z,100070.47
2022-09-29T18:53:01.796Z,100084.88
2022-09-29T18:55:31.495Z,100078.69
2022-09-29T18:58:00.956Z,100078.16
2022-09-29T19:00:32.161Z,100073.13
2022-09-29T19:03:02.639Z,100087.25
2022-09-29T19:05:34.293Z,100081.19
2022-09-29T19:08:04.288Z,100090.91
2022-09-29T19:10:34.576Z,100090.91
2022-09-29T19:13:04.572Z,100092.94
2022-09-29T19:15:35.636Z,100098.50
2022-09-29T19:18:05.310Z,100103.88
2022-09-29T19:20:35.569Z,100104.84
2022-09-29T19:23:05.591Z,100109.41
2022-09-29T19:25:36.664Z,100100.66
2022-09-29T19:28:06.369Z,100093.63
2022-09-29T19:30:36.103Z,100110.22
2022-09-29T19:33:04.502Z,100104.03
2022-09-29T19:35:35.281Z,100099.31
2022-09-29T19:38:03.897Z,100109.41
2022-09-29T19:40:34.743Z,100100.97
2022-09-29T19:43:05.149Z,100116.78
2022-09-29T19:45:37.854Z,100117.63
2022-09-29T19:48:06.647Z,100119.47
2022-09-29T19:50:53.878Z,100128.38
2022-09-29T19:53:22.369Z,100127.53
2022-09-29T19:55:52.448Z,100136.63
2022-09-29T19:58:21.239Z,100143.66
2022-09-29T20:00:49.370Z,100136.63
2022-09-29T20:03:17.573Z,100125.47
2022-09-29T20:05:47.030Z,100134.91
2022-09-29T20:08:15.565Z,100147.69
2022-09-29T20:10:43.745Z,100149.38
2022-09-29T20:13:11.826Z,100160.09
2022-09-29T20:15:46.491Z,100156.72
2022-09-29T20:18:14.920Z,100158.44
2022-09-29T20:20:44.117Z,100148.00
2022-09-29T20:23:13.569Z,100145.16
2022-09-29T20:25:41.665Z,100148.66
2022-09-29T20:28:14.416Z,100150.16
2022-09-29T20:30:43.508Z,100160.44
2022-09-29T20:33:11.674Z,100160.44
2022-09-29T20:35:41.202Z,100164.13
2022-09-29T20:38:09.299Z,100154.22
2022-09-29T20:40:39.139Z,100164.97
2022-09-29T20:43:07.217Z,100170.34
2022-09-29T20:45:35.291Z,100169.50
2022-09-29T20:48:03.468Z,100165.44
2022-09-29T20:50:31.572Z,100169.50
2022-09-29T20:52:59.818Z,100174.03
2022-09-29T20:55:27.851Z,100178.56
2022-09-29T20:57:57.975Z,100178.56
2022-09-29T21:00:26.215Z,100174.03
2022-09-29T21:02:54.414Z,100180.59
2022-09-29T21:05:24.980Z,100183.44
2022-09-29T21:07:54.141Z,100178.88
2022-09-29T21:10:22.242Z,100185.97
2022-09-29T21:12:50.821Z,100187.63
2022-09-29T21:15:20.320Z,100187.63
2022-09-29T21:17:48.446Z,100180.59
2022-09-29T21:20:17.395Z,100180.59
2022-09-29T21:22:46.075Z,100176.19
2022-09-29T21:25:15.788Z,100098.38
2022-09-29T21:27:43.945Z,100184.25
2022-09-29T21:30:12.280Z,100182.59
2022-09-29T21:32:41.875Z,100190.66
2022-09-29T21:35:11.193Z,100182.59
2022-09-29T21:37:39.290Z,100179.19
2022-09-29T21:40:09.360Z,100191.66
2022-09-29T21:42:37.769Z,100191.66
2022-09-29T21:45:06.489Z,100191.66
2022-09-29T21:47:48.353Z,100194.34
2022-09-29T21:50:18.774Z,100197.03
2022-09-29T21:52:46.824Z,100197.03
2022-09-29T21:55:16.011Z,100203.22
2022-09-29T21:57:44.193Z,100201.56
2022-09-29T22:00:13.303Z,100207.78
2022-09-29T22:02:41.493Z,100202.41
2022-09-29T22:05:10.428Z,100202.72
2022-09-29T22:07:39.934Z,100199.03
2022-09-29T22:10:09.023Z,100211.44
2022-09-29T22:12:37.689Z,100210.47
2022-09-29T22:15:06.886Z,100208.91
2022-09-29T22:17:35.307Z,100209.78
2022-09-29T22:20:03.916Z,100213.47
2022-09-29T22:22:32.004Z,100192.41
2022-09-29T22:25:02.727Z,100211.78
2022-09-29T22:27:30.830Z,100213.47
2022-09-29T22:29:58.927Z,100219.84
2022-09-29T22:32:26.988Z,100217.16
2022-09-29T22:34:56.251Z,100204.72
2022-09-29T22:37:30.769Z,100215.47
2022-09-29T22:39:59.384Z,100208.41
2022-09-29T22:42:28.856Z,100208.41
2022-09-29T22:44:57.041Z,100209.72
2022-09-29T22:47:25.112Z,100215.47
2022-09-29T22:49:53.228Z,100220.84
2022-09-29T22:52:21.290Z,100215.47
2022-09-29T22:54:49.380Z,100215.47
2022-09-29T22:57:17.499Z,100210.09
2022-09-29T22:59:46.968Z,100211.78
2022-09-29T23:02:15.262Z,100210.09
2022-09-29T23:04:43.469Z,100211.78
2022-09-29T23:07:11.755Z,100206.41
2022-09-29T23:09:39.933Z,100211.78
2022-09-29T23:12:09.254Z,100206.41
2022-09-29T23:14:37.385Z,100206.72
2022-09-29T23:17:09.228Z,100204.72
2022-09-29T23:19:37.391Z,100210.25
2022-09-29T23:22:05.610Z,100206.72
2022-09-29T23:24:33.695Z,100211.09
2022-09-29T23:27:01.876Z,100212.09
2022-09-29T23:29:29.981Z,100207.56
2022-09-29T23:31:58.178Z,100206.72
2022-09-29T23:34:27.760Z,100205.03
2022-09-29T23:36:55.878Z,100207.03
2022-09-29T23:39:22.994Z,100207.56
2022-09-29T23:41:53.548Z,100214.13
2022-09-29T23:44:24.257Z,100205.03
2022-09-29T23:46:54.179Z,100210.41
2022-09-29T23:49:24.270Z,100208.75
2022-09-29T23:51:55.859Z,100173.34
2022-09-29T23:54:25.787Z,100216.47
2022-09-29T23:56:55.930Z,100206.88
2022-09-29T23:59:24.369Z,100213.09
